createdAt,value
2023-05-20T00:00:19.771Z,1.6
2023-05-20T00:01:23.090Z,1.6
2023-05-20T00:02:26.278Z,1.5
2023-05-20T00:03:29.518Z,1.6
2023-05-20T00:04:32.932Z,1.5
2023-05-20T00:05:36.111Z,1.7
2023-05-20T00:06:39.544Z,1.5
2023-05-20T00:07:42.733Z,1.6
2023-05-20T00:08:46.140Z,1.6
2023-05-20T00:09:49.445Z,1.6
2023-05-20T00:10:51.586Z,1.6
2023-05-20T00:11:55.025Z,1.6
2023-05-20T00:12:58.235Z,1.5
2023-05-20T00:14:01.638Z,1.5
2023-05-20T00:15:04.774Z,1.5
2023-05-20T00:16:08.230Z,1.7
2023-05-20T00:17:11.436Z,1.5
2023-05-20T00:18:14.764Z,1.5
2023-05-20T00:19:18.073Z,1.5
2023-05-20T00:20:21.203Z,1.7
2023-05-20T00:21:24.658Z,1.5
2023-05-20T00:22:27.986Z,1.5
2023-05-20T00:23:31.286Z,1.5
2023-05-20T00:24:33.550Z,1.4
2023-05-20T00:25:36.746Z,1.3
2023-05-20T00:26:40.097Z,1.5
2023-05-20T00:27:43.481Z,1.5
2023-05-20T00:28:47.147Z,1.3
2023-05-20T00:29:50.451Z,1.5
2023-05-20T00:30:53.719Z,1.2
2023-05-20T00:31:57.073Z,1.4
2023-05-20T00:33:00.133Z,1.4
2023-05-20T00:34:03.631Z,1.3
2023-05-20T00:35:06.683Z,1.3
2023-05-20T00:36:09.994Z,1.3
2023-05-20T00:37:13.502Z,1.3
2023-05-20T00:38:15.728Z,1.3
2023-05-20T00:39:19.006Z,1.3
2023-05-20T00:40:22.156Z,1.3
2023-05-20T00:41:25.473Z,1.3
2023-05-20T00:42:28.764Z,1.3
2023-05-20T00:43:32.053Z,1.2
2023-05-20T00:44:35.323Z,1.2
2023-05-20T00:45:38.641Z,1.1
2023-05-20T00:46:41.934Z,1.3
2023-05-20T00:47:45.230Z,1.2
2023-05-20T00:48:48.529Z,1.2
2023-05-20T00:49:51.830Z,1.4
2023-05-20T00:50:55.146Z,1.2
2023-05-20T00:51:57.404Z,1.2
2023-05-20T00:53:00.680Z,1
2023-05-20T00:54:03.990Z,1.1
2023-05-20T00:55:07.279Z,1.2
2023-05-20T00:56:10.562Z,1.2
2023-05-20T00:57:13.862Z,1.1
2023-05-20T00:58:17.158Z,1.3
2023-05-20T00:59:20.451Z,1.1
2023-05-20T01:00:23.734Z,1.1
2023-05-20T01:01:27.031Z,1.2
2023-05-20T01:02:30.330Z,1.2
2023-05-20T01:03:33.610Z,1.2
2023-05-20T01:04:36.910Z,1.1
2023-05-20T01:05:39.276Z,1.3
2023-05-20T01:06:42.673Z,1.2
2023-05-20T01:07:45.885Z,1.2
2023-05-20T01:08:49.186Z,1
2023-05-20T01:09:52.438Z,1.2
2023-05-20T01:10:55.821Z,1
2023-05-20T01:11:58.081Z,1.2
2023-05-20T01:13:01.302Z,1.1
2023-05-20T01:14:04.563Z,1.1
2023-05-20T01:15:07.856Z,1
2023-05-20T01:16:11.197Z,1.1
2023-05-20T01:17:14.513Z,1.1
2023-05-20T01:18:17.877Z,1
2023-05-20T01:19:21.110Z,1.1
2023-05-20T01:20:24.486Z,0.9
2023-05-20T01:21:27.835Z,1
2023-05-20T01:22:31.081Z,1
2023-05-20T01:23:34.285Z,1
2023-05-20T01:24:37.634Z,1.1
2023-05-20T01:25:39.918Z,1.1
2023-05-20T01:26:43.217Z,1.2
2023-05-20T01:27:46.535Z,1
2023-05-20T01:28:49.834Z,1.2
2023-05-20T01:29:53.165Z,1.2
2023-05-20T01:30:56.450Z,1
2023-05-20T01:31:59.689Z,1.1
2023-05-20T01:33:02.992Z,1.1
2023-05-20T01:34:06.294Z,1.1
2023-05-20T01:35:09.627Z,1.1
2023-05-20T01:36:12.898Z,1
2023-05-20T01:37:16.048Z,1.1
2023-05-20T01:38:19.490Z,1.2
2023-05-20T01:39:21.784Z,1.2
2023-05-20T01:40:25.097Z,1
2023-05-20T01:41:28.370Z,1
2023-05-20T01:42:31.665Z,1.3
2023-05-20T01:43:34.771Z,1.1
2023-05-20T01:44:38.067Z,1.1
2023-05-20T01:45:41.506Z,1.1
2023-05-20T01:46:44.796Z,1.1
2023-05-20T01:47:48.135Z,1.2
2023-05-20T01:48:51.450Z,1
2023-05-20T01:49:54.696Z,1
2023-05-20T01:50:57.845Z,1.1
2023-05-20T01:52:01.293Z,1
2023-05-20T01:53:03.601Z,1.2
2023-05-20T01:54:06.841Z,1.1
2023-05-20T01:55:10.212Z,1.1
2023-05-20T01:56:13.368Z,1.4
2023-05-20T01:57:16.690Z,1.3
2023-05-20T01:58:20.045Z,1
2023-05-20T01:59:23.249Z,1.2
2023-05-20T02:00:26.586Z,1
2023-05-20T02:01:29.927Z,1.1
2023-05-20T02:02:33.305Z,1.1
2023-05-20T02:03:36.355Z,1.1
2023-05-20T02:04:39.807Z,1.1
2023-05-20T02:05:43.062Z,1.1
2023-05-20T02:06:45.303Z,1.1
2023-05-20T02:07:48.691Z,1.1
2023-05-20T02:08:51.991Z,1.1
2023-05-20T02:09:55.283Z,1.2
2023-05-20T02:10:58.557Z,1.2
2023-05-20T02:12:01.833Z,1.2
2023-05-20T02:13:05.115Z,1
2023-05-20T02:14:08.426Z,1.1
2023-05-20T02:15:11.778Z,1.2
2023-05-20T02:16:15.030Z,1.1
2023-05-20T02:17:18.278Z,1.1
2023-05-20T02:18:21.629Z,1.3
2023-05-20T02:19:24.918Z,1.1
2023-05-20T02:20:27.049Z,1.1
2023-05-20T02:21:30.405Z,1.1
2023-05-20T02:22:33.774Z,1.3
2023-05-20T02:23:37.117Z,1.2
2023-05-20T02:24:40.382Z,1.1
2023-05-20T02:25:43.600Z,1.3
2023-05-20T02:26:47.032Z,1.3
2023-05-20T02:27:50.236Z,1.3
2023-05-20T02:28:53.508Z,1.1
2023-05-20T02:29:56.898Z,1.3
2023-05-20T02:31:00.182Z,1.2
2023-05-20T02:32:03.338Z,1.3
2023-05-20T02:33:06.676Z,1.1
2023-05-20T02:34:09.125Z,1.1
2023-05-20T02:35:12.196Z,1.2
2023-05-20T02:36:15.618Z,1.2
2023-05-20T02:37:18.721Z,1.2
2023-05-20T02:38:22.102Z,1.1
2023-05-20T02:39:25.511Z,1.1
2023-05-20T02:40:28.784Z,1.3
2023-05-20T02:42:35.349Z,1.1
2023-05-20T02:43:38.646Z,1.4
2023-05-20T02:44:41.786Z,1.2
2023-05-20T02:45:45.175Z,1.2
2023-05-20T02:46:48.539Z,1.2
2023-05-20T02:47:50.678Z,1.1
2023-05-20T02:48:54.124Z,1.2
2023-05-20T02:49:57.418Z,1.3
2023-05-20T02:51:00.748Z,1.1
2023-05-20T02:52:04.049Z,1.2
2023-05-20T02:53:07.256Z,1.3
2023-05-20T02:54:10.591Z,1.2
2023-05-20T02:55:13.898Z,1.1
2023-05-20T02:56:17.154Z,1.2
2023-05-20T02:57:20.454Z,1.1
2023-05-20T02:58:23.711Z,1.2
2023-05-20T02:59:26.880Z,1.1
2023-05-20T03:00:30.329Z,1.5
2023-05-20T03:01:32.603Z,1.3
2023-05-20T03:02:35.880Z,1.3
2023-05-20T03:03:39.132Z,1.4
2023-05-20T03:04:42.351Z,1.3
2023-05-20T03:05:45.791Z,1.3
2023-05-20T03:06:48.939Z,1.3
2023-05-20T03:07:52.405Z,1.1
2023-05-20T03:08:55.665Z,1.2
2023-05-20T03:09:58.812Z,1.2
2023-05-20T03:11:02.202Z,1.2
2023-05-20T03:12:05.635Z,1.2
2023-05-20T03:13:08.801Z,1.1
2023-05-20T03:14:12.262Z,1
2023-05-20T03:15:14.449Z,1.2
2023-05-20T03:16:17.765Z,1
2023-05-20T03:17:21.007Z,1.3
2023-05-20T03:18:24.196Z,1.1
2023-05-20T03:19:27.448Z,1.1
2023-05-20T03:20:30.890Z,1
2023-05-20T03:21:34.125Z,1
2023-05-20T03:22:37.474Z,1
2023-05-20T03:24:43.919Z,1.2
2023-05-20T03:25:47.350Z,1.1
2023-05-20T03:26:50.559Z,1.2
2023-05-20T03:27:53.870Z,1.1
2023-05-20T03:28:56.239Z,1.2
2023-05-20T03:29:59.434Z,1.1
2023-05-20T03:31:02.874Z,1.1
2023-05-20T03:32:06.159Z,1.3
2023-05-20T03:33:09.417Z,1.2
2023-05-20T03:34:12.617Z,1.1
2023-05-20T03:35:16.042Z,1
2023-05-20T03:36:19.338Z,1.1
2023-05-20T03:37:22.587Z,1.2
2023-05-20T03:38:25.900Z,1.3
2023-05-20T03:39:29.197Z,1.2
2023-05-20T03:40:32.413Z,1.1
2023-05-20T03:41:35.795Z,1.3
2023-05-20T03:42:38.020Z,1.1
2023-05-20T03:43:41.360Z,1.2
2023-05-20T03:44:44.634Z,1.2
2023-05-20T03:45:48.145Z,1.1
2023-05-20T03:46:51.450Z,1.3
2023-05-20T03:47:54.824Z,1.1
2023-05-20T03:48:58.046Z,1.5
2023-05-20T03:50:01.421Z,1.3
2023-05-20T03:51:04.730Z,1.3
2023-05-20T03:52:08.116Z,1.5
2023-05-20T03:53:11.333Z,1.7
2023-05-20T03:54:14.473Z,1.6
2023-05-20T03:55:17.877Z,1.7
2023-05-20T03:56:20.289Z,1.5
2023-05-20T03:57:23.374Z,1.5
2023-05-20T03:58:26.783Z,1.6
2023-05-20T03:59:30.107Z,1.3
2023-05-20T04:00:33.311Z,1.7
2023-05-20T04:01:36.585Z,1.5
2023-05-20T04:02:40.108Z,1.7
2023-05-20T04:03:43.291Z,2.4
2023-05-20T04:04:46.445Z,2
2023-05-20T04:05:49.819Z,1.9
2023-05-20T04:06:53.116Z,1.8
2023-05-20T04:07:56.564Z,1.8
2023-05-20T04:08:59.748Z,1.6
2023-05-20T04:10:02.086Z,1.7
2023-05-20T04:11:05.175Z,1.2
2023-05-20T04:12:08.563Z,1.6
2023-05-20T04:13:11.986Z,1.6
2023-05-20T04:14:15.264Z,1.6
2023-05-20T04:15:18.343Z,1.5
2023-05-20T04:16:21.769Z,1.5
2023-05-20T04:17:25.050Z,1.6
2023-05-20T04:18:28.396Z,1.4
2023-05-20T04:19:31.652Z,1.3
2023-05-20T04:20:35.038Z,1.5
2023-05-20T04:21:38.261Z,1.4
2023-05-20T04:22:41.452Z,1.5
2023-05-20T04:23:43.849Z,1.4
2023-05-20T04:24:47.219Z,1.2
2023-05-20T04:25:50.351Z,1.5
2023-05-20T04:26:53.807Z,1.4
2023-05-20T04:27:57.082Z,1.3
2023-05-20T04:29:00.348Z,1.2
2023-05-20T04:30:03.518Z,1.3
2023-05-20T04:31:06.872Z,1.3
2023-05-20T04:32:10.042Z,1.3
2023-05-20T04:33:13.327Z,1.4
2023-05-20T04:34:16.612Z,1.4
2023-05-20T04:35:19.903Z,1.1
2023-05-20T04:36:23.218Z,1.3
2023-05-20T04:38:28.814Z,1.4
2023-05-20T04:39:32.107Z,1.4
2023-05-20T04:40:35.379Z,1.3
2023-05-20T04:41:38.668Z,1.3
2023-05-20T04:42:41.969Z,1.1
2023-05-20T04:43:44.288Z,1.3
2023-05-20T04:44:47.586Z,1.1
2023-05-20T04:45:50.884Z,1.3
2023-05-20T04:46:54.165Z,1.1
2023-05-20T04:47:57.460Z,1.2
2023-05-20T04:50:04.046Z,1.1
2023-05-20T04:51:07.337Z,1.1
2023-05-20T04:52:10.622Z,1.1
2023-05-20T04:53:13.924Z,1.4
2023-05-20T04:54:17.206Z,0.9
2023-05-20T04:55:20.487Z,1.1
2023-05-20T04:56:23.793Z,1
2023-05-20T04:57:26.105Z,1
2023-05-20T04:58:29.417Z,1
2023-05-20T04:59:32.670Z,1
2023-05-20T05:00:35.989Z,1.1
2023-05-20T05:01:39.262Z,1.1
2023-05-20T05:02:42.573Z,1.1
2023-05-20T05:03:45.869Z,1.1
2023-05-20T05:04:49.162Z,1
2023-05-20T05:05:52.452Z,1
2023-05-20T05:06:55.741Z,1
2023-05-20T05:07:59.009Z,1
2023-05-20T05:09:02.309Z,1.1
2023-05-20T05:10:05.595Z,1.1
2023-05-20T05:11:07.916Z,1.2
2023-05-20T05:12:11.210Z,1.3
2023-05-20T05:13:14.489Z,1.1
2023-05-20T05:14:17.796Z,1
2023-05-20T05:15:21.083Z,1.1
2023-05-20T05:16:24.380Z,1.2
2023-05-20T05:17:27.670Z,1
2023-05-20T05:18:31.011Z,1
2023-05-20T05:19:34.257Z,1.1
2023-05-20T05:20:37.544Z,1.1
2023-05-20T05:21:40.869Z,1.1
2023-05-20T05:22:44.127Z,1.1
2023-05-20T05:23:47.433Z,1.1
2023-05-20T05:24:49.725Z,1.1
2023-05-20T05:25:53.031Z,1
2023-05-20T05:26:56.303Z,1
2023-05-20T05:27:59.585Z,0.9
2023-05-20T05:29:02.896Z,1.3
2023-05-20T05:30:06.188Z,1.2
2023-05-20T05:31:09.473Z,1.2
2023-05-20T05:32:12.772Z,1.1
2023-05-20T05:33:16.057Z,1.2
2023-05-20T05:34:19.350Z,0.9
2023-05-20T05:35:22.654Z,1
2023-05-20T05:36:25.944Z,1
2023-05-20T05:37:29.235Z,1
2023-05-20T05:38:31.525Z,1
2023-05-20T05:39:34.829Z,1.2
2023-05-20T05:40:38.117Z,1
2023-05-20T05:41:41.397Z,1
2023-05-20T05:42:44.705Z,1.2
2023-05-20T05:43:48.002Z,0.9
2023-05-20T05:44:51.280Z,1
2023-05-20T05:46:57.862Z,1.1
2023-05-20T05:48:01.170Z,0.9
2023-05-20T05:49:04.455Z,1
2023-05-20T05:50:07.751Z,0.9
2023-05-20T05:51:11.042Z,0.9
2023-05-20T05:52:13.342Z,0.9
2023-05-20T05:53:16.636Z,1
2023-05-20T05:54:19.919Z,0.9
2023-05-20T05:55:23.227Z,1
2023-05-20T05:56:26.509Z,1
2023-05-20T05:57:29.804Z,1
2023-05-20T05:58:33.120Z,1
2023-05-20T05:59:36.379Z,1
2023-05-20T06:00:39.696Z,1.1
2023-05-20T06:01:42.964Z,1
2023-05-20T06:02:46.278Z,0.9
2023-05-20T06:03:49.570Z,1
2023-05-20T06:04:52.863Z,1
2023-05-20T06:05:55.177Z,0.9
2023-05-20T06:06:58.458Z,1
2023-05-20T06:08:01.754Z,0.9
2023-05-20T06:09:05.044Z,1
2023-05-20T06:10:08.331Z,1
2023-05-20T06:11:11.639Z,0.9
2023-05-20T06:12:14.904Z,0.9
2023-05-20T06:13:18.201Z,1
2023-05-20T06:14:21.496Z,0.8
2023-05-20T06:15:24.780Z,0.9
2023-05-20T06:16:28.095Z,1
2023-05-20T06:17:31.376Z,1
2023-05-20T06:18:34.672Z,1
2023-05-20T06:19:36.977Z,0.9
2023-05-20T06:20:40.362Z,1.1
2023-05-20T06:21:43.588Z,0.9
2023-05-20T06:22:46.882Z,1
2023-05-20T06:23:50.157Z,1
2023-05-20T06:24:53.445Z,1.1
2023-05-20T06:25:56.726Z,0.9
2023-05-20T06:27:00.032Z,1
2023-05-20T06:28:03.331Z,0.9
2023-05-20T06:29:06.611Z,1
2023-05-20T06:30:09.913Z,1
2023-05-20T06:31:13.188Z,1.1
2023-05-20T06:32:16.492Z,0.9
2023-05-20T06:33:18.787Z,1
2023-05-20T06:34:22.080Z,0.9
2023-05-20T06:35:25.398Z,1
2023-05-20T06:36:28.667Z,1
2023-05-20T06:37:31.961Z,1
2023-05-20T06:38:35.258Z,1.2
2023-05-20T06:39:38.564Z,1.1
2023-05-20T06:40:41.859Z,1
2023-05-20T06:41:45.130Z,0.9
2023-05-20T06:42:48.420Z,1
2023-05-20T06:43:51.710Z,1
2023-05-20T06:44:55.013Z,1
2023-05-20T06:45:58.290Z,1
2023-05-20T06:47:00.591Z,0.9
2023-05-20T06:48:03.886Z,1
2023-05-20T06:49:07.199Z,1
2023-05-20T06:50:10.482Z,0.9
2023-05-20T06:51:13.779Z,0.8
2023-05-20T06:52:17.072Z,1.2
2023-05-20T06:53:20.349Z,1.1
2023-05-20T06:54:23.651Z,1.2
2023-05-20T06:55:26.949Z,1.1
2023-05-20T06:56:30.226Z,0.8
2023-05-20T06:57:33.519Z,0.9
2023-05-20T06:58:36.822Z,1
2023-05-20T06:59:40.112Z,1.1
2023-05-20T07:00:42.413Z,0.9
2023-05-20T07:01:45.716Z,0.9
2023-05-20T07:02:49.317Z,0.9
2023-05-20T07:03:52.612Z,1.1
2023-05-20T07:04:55.890Z,1
2023-05-20T07:05:59.181Z,0.9
2023-05-20T07:07:02.489Z,0.9
2023-05-20T07:08:05.764Z,1
2023-05-20T07:09:09.066Z,1.1
2023-05-20T07:10:12.354Z,0.9
2023-05-20T07:11:15.670Z,0.8
2023-05-20T07:12:18.941Z,0.9
2023-05-20T07:13:22.244Z,1
2023-05-20T07:14:24.539Z,0.8
2023-05-20T07:15:27.835Z,1.1
2023-05-20T07:16:31.129Z,0.9
2023-05-20T07:17:34.406Z,1
2023-05-20T07:18:37.697Z,1
2023-05-20T07:19:40.989Z,0.9
2023-05-20T07:20:44.283Z,0.9
2023-05-20T07:21:47.592Z,1
2023-05-20T07:22:50.868Z,0.9
2023-05-20T07:23:54.174Z,1
2023-05-20T07:24:57.451Z,1
2023-05-20T07:26:00.756Z,0.9
2023-05-20T07:27:04.039Z,0.9
2023-05-20T07:28:06.356Z,0.9
2023-05-20T07:29:09.653Z,0.8
2023-05-20T07:30:12.925Z,1
2023-05-20T07:31:16.232Z,1
2023-05-20T07:32:19.515Z,0.9
2023-05-20T07:33:22.809Z,1.2
2023-05-20T07:34:26.111Z,1
2023-05-20T07:35:29.400Z,0.9
2023-05-20T07:36:32.685Z,0.9
2023-05-20T07:37:35.982Z,0.8
2023-05-20T07:38:39.275Z,0.9
2023-05-20T07:39:42.556Z,0.9
2023-05-20T07:40:45.848Z,1
2023-05-20T07:41:48.157Z,0.9
2023-05-20T07:42:51.461Z,0.9
2023-05-20T07:43:54.758Z,0.9
2023-05-20T07:44:58.025Z,0.9
2023-05-20T07:46:01.334Z,0.8
2023-05-20T07:47:04.621Z,0.7
2023-05-20T07:48:07.919Z,1
2023-05-20T07:49:11.228Z,1
2023-05-20T07:50:14.497Z,0.9
2023-05-20T07:51:17.805Z,0.8
2023-05-20T07:52:21.093Z,1
2023-05-20T07:53:24.383Z,1
2023-05-20T07:54:27.666Z,1
2023-05-20T07:55:29.979Z,1.1
2023-05-20T07:56:33.264Z,0.9
2023-05-20T07:57:36.563Z,1
2023-05-20T07:58:39.861Z,0.9
2023-05-20T07:59:43.140Z,1.1
2023-05-20T08:00:46.642Z,1.1
2023-05-20T08:01:49.935Z,1.1
2023-05-20T08:02:53.218Z,1.1
2023-05-20T08:03:56.533Z,1.2
2023-05-20T08:04:59.856Z,1
2023-05-20T08:06:03.117Z,0.9
2023-05-20T08:07:06.410Z,1
2023-05-20T08:08:09.699Z,0.8
2023-05-20T08:09:11.997Z,1
2023-05-20T08:10:15.294Z,1.1
2023-05-20T08:11:18.596Z,0.9
2023-05-20T08:12:21.875Z,0.9
2023-05-20T08:13:25.173Z,1.1
2023-05-20T08:14:28.462Z,1
2023-05-20T08:15:30.790Z,1
2023-05-20T08:16:34.072Z,1
2023-05-20T08:17:37.356Z,1
2023-05-20T08:18:40.661Z,0.9
2023-05-20T08:19:43.940Z,1
2023-05-20T08:20:47.236Z,0.9
2023-05-20T08:21:50.543Z,1
2023-05-20T08:22:53.813Z,0.9
2023-05-20T08:23:57.111Z,1
2023-05-20T08:25:00.400Z,1
2023-05-20T08:26:03.680Z,0.9
2023-05-20T08:27:06.985Z,0.9
2023-05-20T08:28:10.282Z,1
2023-05-20T08:29:12.571Z,0.9
2023-05-20T08:30:15.884Z,0.9
2023-05-20T08:31:19.187Z,0.9
2023-05-20T08:32:22.463Z,0.8
2023-05-20T08:33:25.752Z,1
2023-05-20T08:34:29.049Z,0.9
2023-05-20T08:35:32.355Z,0.8
2023-05-20T08:36:35.619Z,0.9
2023-05-20T08:37:38.932Z,0.8
2023-05-20T08:38:42.210Z,0.9
2023-05-20T08:39:45.518Z,0.8
2023-05-20T08:40:48.792Z,0.7
2023-05-20T08:41:52.094Z,0.9
2023-05-20T08:42:54.387Z,0.9
2023-05-20T08:43:57.710Z,0.7
2023-05-20T08:45:00.988Z,0.8
2023-05-20T08:46:04.282Z,0.8
2023-05-20T08:47:07.576Z,0.7
2023-05-20T08:48:10.845Z,0.8
2023-05-20T08:49:14.155Z,0.8
2023-05-20T08:50:17.442Z,1
2023-05-20T08:51:20.732Z,0.9
2023-05-20T08:52:24.026Z,0.7
2023-05-20T08:53:27.320Z,0.8
2023-05-20T08:54:30.614Z,0.7
2023-05-20T08:55:33.907Z,0.8
2023-05-20T08:56:36.220Z,0.6
2023-05-20T08:57:39.504Z,0.8
2023-05-20T08:58:42.801Z,0.7
2023-05-20T08:59:46.094Z,0.8
2023-05-20T09:00:49.370Z,0.8
2023-05-20T09:01:53.030Z,0.8
2023-05-20T09:02:56.316Z,0.8
2023-05-20T09:03:59.613Z,0.9
2023-05-20T09:05:02.907Z,0.7
2023-05-20T09:06:06.172Z,0.8
2023-05-20T09:07:09.487Z,1.1
2023-05-20T09:08:12.780Z,0.8
2023-05-20T09:09:16.083Z,0.7
2023-05-20T09:10:18.371Z,0.9
2023-05-20T09:11:21.666Z,0.8
2023-05-20T09:12:24.954Z,0.7
2023-05-20T09:13:28.243Z,0.7
2023-05-20T09:14:31.539Z,0.6
2023-05-20T09:15:34.843Z,0.7
2023-05-20T09:16:38.126Z,0.8
2023-05-20T09:17:41.415Z,0.7
2023-05-20T09:18:44.721Z,0.8
2023-05-20T09:19:48.006Z,0.7
2023-05-20T09:20:51.297Z,0.7
2023-05-20T09:21:54.606Z,0.8
2023-05-20T09:22:57.879Z,0.7
2023-05-20T09:24:00.187Z,0.7
2023-05-20T09:25:03.473Z,0.8
2023-05-20T09:26:06.780Z,0.8
2023-05-20T09:27:10.067Z,0.8
2023-05-20T09:28:13.369Z,0.7
2023-05-20T09:29:16.654Z,0.9
2023-05-20T09:30:19.954Z,1
2023-05-20T09:31:23.232Z,2
2023-05-20T09:32:26.544Z,1.4
2023-05-20T09:33:29.824Z,1.2
2023-05-20T09:34:33.100Z,1.1
2023-05-20T09:35:36.415Z,1.1
2023-05-20T09:36:39.687Z,1.2
2023-05-20T09:37:41.999Z,1.4
2023-05-20T09:38:45.286Z,1.7
2023-05-20T09:39:48.595Z,1.6
2023-05-20T09:40:51.864Z,1.6
2023-05-20T09:41:55.198Z,1.7
2023-05-20T09:42:58.471Z,1.4
2023-05-20T09:44:01.756Z,1.4
2023-05-20T09:45:05.061Z,1.3
2023-05-20T09:46:08.353Z,1.2
2023-05-20T09:47:11.624Z,1.3
2023-05-20T09:48:14.936Z,1.4
2023-05-20T09:49:18.215Z,1.2
2023-05-20T09:50:21.503Z,1.2
2023-05-20T09:51:23.805Z,1.3
2023-05-20T09:52:27.124Z,1.5
2023-05-20T09:53:30.397Z,1.2
2023-05-20T09:54:33.700Z,1.4
2023-05-20T09:55:36.986Z,1.4
2023-05-20T09:56:40.283Z,1.2
2023-05-20T09:57:43.557Z,1.4
2023-05-20T09:58:46.864Z,1.1
2023-05-20T09:59:50.496Z,1
2023-05-20T10:00:53.801Z,1.1
2023-05-20T10:01:57.094Z,1.1
2023-05-20T10:03:00.395Z,1.1
2023-05-20T10:04:03.692Z,1
2023-05-20T10:05:05.980Z,1
2023-05-20T10:06:09.283Z,1.1
2023-05-20T10:07:12.573Z,1.1
2023-05-20T10:08:15.862Z,1.1
2023-05-20T10:09:19.164Z,1
2023-05-20T10:10:22.428Z,0.9
2023-05-20T10:11:25.733Z,1
2023-05-20T10:12:29.031Z,1.1
2023-05-20T10:13:32.322Z,1.2
2023-05-20T10:14:35.608Z,1
2023-05-20T10:15:38.891Z,1
2023-05-20T10:16:42.198Z,1.1
2023-05-20T10:17:45.484Z,0.9
2023-05-20T10:18:47.803Z,1
2023-05-20T10:19:51.088Z,0.9
2023-05-20T10:20:54.378Z,1
2023-05-20T10:21:57.677Z,1
2023-05-20T10:23:00.980Z,0.9
2023-05-20T10:24:04.269Z,0.8
2023-05-20T10:25:07.559Z,0.8
2023-05-20T10:26:10.826Z,0.8
2023-05-20T10:27:14.118Z,0.7
2023-05-20T10:28:17.428Z,0.9
2023-05-20T10:29:20.730Z,0.9
2023-05-20T10:30:24.013Z,0.9
2023-05-20T10:31:27.299Z,1
2023-05-20T10:32:29.622Z,0.8
2023-05-20T10:33:32.898Z,0.9
2023-05-20T10:34:36.206Z,0.9
2023-05-20T10:35:39.477Z,0.8
2023-05-20T10:36:42.779Z,1.2
2023-05-20T10:37:46.142Z,0.8
2023-05-20T10:38:49.367Z,0.9
2023-05-20T10:39:52.840Z,0.8
2023-05-20T10:40:56.008Z,0.8
2023-05-20T10:41:59.232Z,0.8
2023-05-20T10:43:02.542Z,0.8
2023-05-20T10:44:06.021Z,1.4
2023-05-20T10:45:09.220Z,0.8
2023-05-20T10:46:11.422Z,0.7
2023-05-20T10:47:14.904Z,0.8
2023-05-20T10:48:18.138Z,0.8
2023-05-20T10:49:21.342Z,0.7
2023-05-20T10:50:24.596Z,0.8
2023-05-20T10:51:27.993Z,0.6
2023-05-20T10:52:31.213Z,0.9
2023-05-20T10:53:34.590Z,0.9
2023-05-20T10:54:37.804Z,0.7
2023-05-20T10:55:41.185Z,0.7
2023-05-20T10:56:44.507Z,0.6
2023-05-20T10:57:47.850Z,0.8
2023-05-20T10:58:51.282Z,0.8
2023-05-20T10:59:53.519Z,0.7
2023-05-20T11:00:56.769Z,0.8
2023-05-20T11:02:00.151Z,0.8
2023-05-20T11:03:03.450Z,0.8
2023-05-20T11:04:06.752Z,0.7
2023-05-20T11:05:10.078Z,0.7
2023-05-20T11:06:13.183Z,0.6
2023-05-20T11:07:16.651Z,0.8
2023-05-20T11:08:19.894Z,0.9
2023-05-20T11:09:23.057Z,0.6
2023-05-20T11:10:26.441Z,0.7
2023-05-20T11:11:29.703Z,0.9
2023-05-20T11:12:33.152Z,0.8
2023-05-20T11:13:35.273Z,0.8
2023-05-20T11:14:38.702Z,0.6
2023-05-20T11:15:42.000Z,0.8
2023-05-20T11:16:45.187Z,0.8
2023-05-20T11:17:48.522Z,0.7
2023-05-20T11:18:51.797Z,0.9
2023-05-20T11:19:55.096Z,0.7
2023-05-20T11:20:58.416Z,0.8
2023-05-20T11:22:01.586Z,0.8
2023-05-20T11:23:04.888Z,0.7
2023-05-20T11:24:08.277Z,0.9
2023-05-20T11:25:11.596Z,1
2023-05-20T11:26:14.906Z,0.8
2023-05-20T11:27:17.169Z,0.9
2023-05-20T11:28:20.533Z,0.9
2023-05-20T11:29:23.631Z,0.8
2023-05-20T11:30:26.945Z,0.9
2023-05-20T11:31:30.284Z,0.8
2023-05-20T11:32:33.509Z,0.8
2023-05-20T11:33:36.961Z,0.9
2023-05-20T11:34:40.240Z,0.8
2023-05-20T11:35:43.396Z,0.8
2023-05-20T11:36:46.679Z,0.9
2023-05-20T11:37:49.974Z,0.8
2023-05-20T11:38:53.501Z,0.7
2023-05-20T11:39:56.700Z,0.7
2023-05-20T11:40:58.946Z,0.8
2023-05-20T11:42:02.258Z,0.8
2023-05-20T11:44:08.742Z,0.8
2023-05-20T11:45:12.216Z,0.8
2023-05-20T11:46:15.499Z,0.8
2023-05-20T11:47:17.834Z,0.8
2023-05-20T11:48:21.026Z,0.8
2023-05-20T11:49:24.409Z,0.9
2023-05-20T11:50:27.593Z,0.8
2023-05-20T11:51:30.916Z,0.8
2023-05-20T11:52:34.266Z,0.8
2023-05-20T11:53:37.377Z,0.9
2023-05-20T11:54:40.800Z,0.8
2023-05-20T11:55:44.129Z,0.8
2023-05-20T11:56:47.254Z,0.8
2023-05-20T11:57:50.556Z,0.8
2023-05-20T11:58:54.164Z,0.7
2023-05-20T11:59:57.455Z,0.6
2023-05-20T12:00:59.766Z,0.7
2023-05-20T12:02:03.073Z,0.7
2023-05-20T12:03:06.361Z,0.5
2023-05-20T12:04:09.635Z,0.7
2023-05-20T12:05:12.947Z,0.7
2023-05-20T12:06:16.224Z,0.6
2023-05-20T12:07:19.540Z,0.7
2023-05-20T12:08:22.823Z,0.6
2023-05-20T12:09:26.162Z,0.7
2023-05-20T12:10:29.486Z,0.7
2023-05-20T12:11:32.812Z,0.6
2023-05-20T12:12:36.210Z,1
2023-05-20T12:13:39.374Z,0.5
2023-05-20T12:14:41.701Z,0.7
2023-05-20T12:15:44.951Z,0.6
2023-05-20T12:16:48.443Z,0.7
2023-05-20T12:17:51.615Z,0.7
2023-05-20T12:18:55.005Z,0.7
2023-05-20T12:19:58.206Z,0.7
2023-05-20T12:21:01.571Z,0.8
2023-05-20T12:22:04.861Z,0.7
2023-05-20T12:23:08.091Z,0.8
2023-05-20T12:24:11.559Z,0.8
2023-05-20T12:25:14.677Z,0.8
2023-05-20T12:26:18.090Z,0.7
2023-05-20T12:27:21.464Z,0.8
2023-05-20T12:28:23.757Z,0.7
2023-05-20T12:29:27.025Z,0.8
2023-05-20T12:30:30.239Z,0.9
2023-05-20T12:31:33.427Z,0.8
2023-05-20T12:32:36.745Z,0.7
2023-05-20T12:33:40.175Z,0.8
2023-05-20T12:34:43.364Z,0.9
2023-05-20T12:35:46.740Z,0.8
2023-05-20T12:36:49.884Z,0.9
2023-05-20T12:37:53.397Z,0.9
2023-05-20T12:38:56.593Z,0.8
2023-05-20T12:39:59.853Z,0.8
2023-05-20T12:41:03.053Z,0.8
2023-05-20T12:42:05.374Z,0.9
2023-05-20T12:43:08.815Z,1
2023-05-20T12:44:12.093Z,0.6
2023-05-20T12:45:15.242Z,0.7
2023-05-20T12:46:18.680Z,1
2023-05-20T12:47:21.934Z,0.9
2023-05-20T12:48:25.179Z,0.9
2023-05-20T12:49:28.653Z,0.7
2023-05-20T12:50:31.685Z,1
2023-05-20T12:51:35.188Z,1
2023-05-20T12:52:38.309Z,0.8
2023-05-20T12:53:41.743Z,0.9
2023-05-20T12:54:44.874Z,1
2023-05-20T12:55:47.184Z,0.9
2023-05-20T12:56:50.645Z,0.7
2023-05-20T12:57:53.889Z,0.8
2023-05-20T12:58:57.125Z,1.1
2023-05-20T13:00:00.477Z,0.7
2023-05-20T13:01:03.649Z,1
2023-05-20T13:02:07.115Z,1.1
2023-05-20T13:03:10.243Z,0.8
2023-05-20T13:04:13.695Z,0.9
2023-05-20T13:05:16.911Z,1
2023-05-20T13:06:20.215Z,1.2
2023-05-20T13:07:23.608Z,0.9
2023-05-20T13:08:26.697Z,0.7
2023-05-20T13:09:29.179Z,1.1
2023-05-20T13:10:32.299Z,1
2023-05-20T13:11:35.726Z,0.9
2023-05-20T13:12:39.044Z,1.1
2023-05-20T13:13:42.157Z,0.7
2023-05-20T13:14:45.548Z,0.9
2023-05-20T13:15:49.016Z,0.8
2023-05-20T13:16:52.387Z,1
2023-05-20T13:17:55.601Z,1
2023-05-20T13:18:58.905Z,1.1
2023-05-20T13:20:02.198Z,1
2023-05-20T13:21:05.409Z,1
2023-05-20T13:22:08.695Z,1.1
2023-05-20T13:23:11.017Z,1
2023-05-20T13:24:14.293Z,1
2023-05-20T13:25:17.593Z,0.8
2023-05-20T13:26:20.874Z,1
2023-05-20T13:27:24.181Z,0.9
2023-05-20T13:28:27.473Z,1
2023-05-20T13:29:30.743Z,1
2023-05-20T13:30:34.062Z,0.8
2023-05-20T13:31:37.352Z,0.9
2023-05-20T13:32:40.749Z,1
2023-05-20T13:33:44.040Z,0.7
2023-05-20T13:34:47.399Z,0.8
2023-05-20T13:35:50.636Z,1
2023-05-20T13:36:52.857Z,1.1
2023-05-20T13:37:56.241Z,1.1
2023-05-20T13:38:59.508Z,1.1
2023-05-20T13:40:02.673Z,0.9
2023-05-20T13:41:06.021Z,1
2023-05-20T13:42:09.287Z,1
2023-05-20T13:43:12.714Z,1
2023-05-20T13:44:15.911Z,0.9
2023-05-20T13:45:19.275Z,1.1
2023-05-20T13:46:22.468Z,1.1
2023-05-20T13:47:25.851Z,0.9
2023-05-20T13:48:29.159Z,1
2023-05-20T13:49:32.471Z,0.8
2023-05-20T13:50:34.622Z,1.1
2023-05-20T13:51:38.142Z,0.9
2023-05-20T13:52:41.266Z,1
2023-05-20T13:53:44.635Z,1
2023-05-20T13:54:47.898Z,0.9
2023-05-20T13:55:51.240Z,1.1
2023-05-20T13:56:54.499Z,1.2
2023-05-20T13:57:57.833Z,1.3
2023-05-20T13:59:00.969Z,1.1
2023-05-20T14:00:04.265Z,1.1
2023-05-20T14:01:07.554Z,1.2
2023-05-20T14:02:11.094Z,1
2023-05-20T14:03:14.212Z,1
2023-05-20T14:04:16.444Z,1
2023-05-20T14:05:19.780Z,1.1
2023-05-20T14:06:23.102Z,1.2
2023-05-20T14:07:26.313Z,1
2023-05-20T14:08:29.764Z,1
2023-05-20T14:09:33.069Z,1.1
2023-05-20T14:10:36.331Z,1
2023-05-20T14:11:39.532Z,1.3
2023-05-20T14:12:42.778Z,1.2
2023-05-20T14:13:46.194Z,1.1
2023-05-20T14:14:49.352Z,1.1
2023-05-20T14:15:52.697Z,1
2023-05-20T14:16:56.115Z,1.2
2023-05-20T14:17:58.381Z,1.2
2023-05-20T14:19:01.664Z,1.1
2023-05-20T14:20:04.867Z,1
2023-05-20T14:21:08.301Z,1
2023-05-20T14:22:11.430Z,1.1
2023-05-20T14:23:14.820Z,0.9
2023-05-20T14:24:18.009Z,0.9
2023-05-20T14:25:21.472Z,1.2
2023-05-20T14:26:24.589Z,1
2023-05-20T14:27:27.987Z,1.1
2023-05-20T14:28:31.333Z,1.1
2023-05-20T14:29:34.562Z,0.9
2023-05-20T14:30:37.760Z,0.8
2023-05-20T14:31:40.133Z,0.9
2023-05-20T14:32:43.508Z,1.1
2023-05-20T14:33:46.802Z,1.1
2023-05-20T14:34:50.039Z,0.8
2023-05-20T14:35:53.222Z,1.1
2023-05-20T14:36:56.592Z,0.9
2023-05-20T14:37:59.987Z,1
2023-05-20T14:39:03.114Z,1
2023-05-20T14:40:06.568Z,1.1
2023-05-20T14:41:09.898Z,0.8
2023-05-20T14:42:13.187Z,1
2023-05-20T14:43:16.272Z,1
2023-05-20T14:44:19.559Z,1
2023-05-20T14:45:21.872Z,1.1
2023-05-20T14:46:25.176Z,1
2023-05-20T14:47:28.468Z,1.1
2023-05-20T14:48:31.750Z,1